createdAt,value
2022-08-22T00:00:27.662Z,19.95
2022-08-22T00:01:30.743Z,19.91
2022-08-22T00:02:28.040Z,19.93
2022-08-22T00:02:49.712Z,21.53
2022-08-22T00:02:52.977Z,24.13
2022-08-22T00:02:59.391Z,20.23
2022-08-22T00:03:01.115Z,23.37
2022-08-22T00:03:02.936Z,24.33
2022-08-22T00:03:27.753Z,19.96
2022-08-22T00:04:27.762Z,20.01
2022-08-22T00:05:27.654Z,20
2022-08-22T00:06:27.676Z,20.01
2022-08-22T00:07:28.004Z,19.98
2022-08-22T00:08:27.737Z,19.98
2022-08-22T00:09:27.810Z,20.03
2022-08-22T00:10:27.658Z,19.98
2022-08-22T00:11:27.718Z,19.98
2022-08-22T00:12:31.145Z,19.94
2022-08-22T00:13:27.744Z,19.9
2022-08-22T00:14:27.771Z,19.84
2022-08-22T00:15:42.160Z,19.8
2022-08-22T00:16:27.637Z,19.8
2022-08-22T00:17:28.068Z,19.8
2022-08-22T00:18:27.849Z,19.8
2022-08-22T00:19:27.764Z,19.8
2022-08-22T00:20:28.399Z,19.79
2022-08-22T00:21:27.787Z,19.78
2022-08-22T00:22:28.074Z,19.77
2022-08-22T00:23:27.742Z,19.79
2022-08-22T00:24:27.758Z,19.81
2022-08-22T00:25:27.820Z,19.8
2022-08-22T00:26:27.731Z,19.83
2022-08-22T00:27:28.080Z,19.84
2022-08-22T00:28:30.658Z,19.88
2022-08-22T00:29:27.852Z,19.89
2022-08-22T00:30:27.695Z,19.89
2022-08-22T00:31:27.658Z,19.91
2022-08-22T00:32:28.084Z,19.88
2022-08-22T00:33:27.801Z,19.88
2022-08-22T00:34:27.775Z,19.9
2022-08-22T00:35:28.076Z,19.91
2022-08-22T00:36:27.846Z,19.88
2022-08-22T00:37:28.240Z,19.82
2022-08-22T00:38:27.852Z,19.79
2022-08-22T00:39:30.782Z,19.79
2022-08-22T00:40:27.743Z,19.78
2022-08-22T00:41:27.643Z,19.79
2022-08-22T00:42:31.656Z,19.74
2022-08-22T00:43:27.735Z,19.72
2022-08-22T00:44:27.832Z,19.67
2022-08-22T00:45:27.782Z,19.65
2022-08-22T00:46:27.651Z,19.64
2022-08-22T00:47:28.071Z,19.63
2022-08-22T00:48:28.104Z,19.67
2022-08-22T00:49:29.594Z,19.69
2022-08-22T00:50:33.726Z,19.7
2022-08-22T00:51:27.814Z,19.78
2022-08-22T00:52:28.483Z,19.79
2022-08-22T00:53:27.819Z,19.8
2022-08-22T00:54:27.764Z,19.79
2022-08-22T00:55:28.065Z,19.77
2022-08-22T00:56:27.774Z,19.81
2022-08-22T00:57:28.073Z,19.82
2022-08-22T00:58:27.842Z,19.79
2022-08-22T00:59:27.823Z,19.79
2022-08-22T01:00:27.749Z,19.8
2022-08-22T01:01:30.819Z,19.82
2022-08-22T01:02:28.061Z,19.81
2022-08-22T01:03:27.722Z,19.79
2022-08-22T01:04:27.743Z,19.76
2022-08-22T01:05:27.998Z,19.99
2022-08-22T01:06:27.744Z,19.97
2022-08-22T01:07:30.482Z,19.95
2022-08-22T01:08:27.719Z,19.85
2022-08-22T01:09:27.732Z,19.82
2022-08-22T01:10:27.786Z,19.78
2022-08-22T01:11:27.804Z,19.73
2022-08-22T01:12:33.677Z,19.71
2022-08-22T01:13:27.837Z,19.69
2022-08-22T01:14:34.088Z,19.85
2022-08-22T01:15:27.775Z,19.82
2022-08-22T01:16:27.746Z,19.8
2022-08-22T01:17:28.068Z,19.77
2022-08-22T01:18:27.726Z,19.65
2022-08-22T01:19:27.669Z,19.66
2022-08-22T01:20:28.078Z,19.78
2022-08-22T01:21:27.998Z,19.94
2022-08-22T01:22:27.849Z,19.94
2022-08-22T01:23:30.743Z,19.8
2022-08-22T01:24:27.811Z,19.79
2022-08-22T01:25:27.782Z,19.8
2022-08-22T01:26:28.003Z,19.81
2022-08-22T01:27:27.797Z,19.8
2022-08-22T01:28:27.743Z,19.79
2022-08-22T01:29:28.470Z,19.78
2022-08-22T01:30:27.750Z,19.78
2022-08-22T01:31:28.234Z,19.8
2022-08-22T01:32:27.822Z,19.83
2022-08-22T01:33:27.743Z,19.76
2022-08-22T01:34:30.775Z,19.72
2022-08-22T01:35:28.144Z,19.74
2022-08-22T01:36:28.004Z,19.75
2022-08-22T01:37:27.705Z,19.8
2022-08-22T01:38:27.815Z,19.77
2022-08-22T01:39:27.855Z,19.8
2022-08-22T01:40:27.761Z,19.78
2022-08-22T01:41:28.085Z,19.76
2022-08-22T01:42:27.842Z,19.77
2022-08-22T01:43:59.263Z,19.79
2022-08-22T01:44:27.760Z,19.79
2022-08-22T01:45:30.753Z,19.77
2022-08-22T01:46:28.002Z,19.76
2022-08-22T01:47:27.834Z,19.75
2022-08-22T01:48:27.641Z,19.73
2022-08-22T01:49:27.725Z,19.69
2022-08-22T01:50:28.074Z,19.68
2022-08-22T01:51:28.083Z,19.68
2022-08-22T01:52:27.818Z,19.65
2022-08-22T01:53:28.193Z,19.63
2022-08-22T01:54:27.633Z,19.61
2022-08-22T01:55:27.772Z,19.62
2022-08-22T01:56:27.739Z,19.64
2022-08-22T01:57:27.674Z,19.62
2022-08-22T01:58:27.761Z,19.64
2022-08-22T01:59:33.858Z,19.69
2022-08-22T02:00:35.027Z,19.71
2022-08-22T02:01:33.690Z,19.75
2022-08-22T02:02:27.800Z,19.75
2022-08-22T02:03:27.727Z,19.74
2022-08-22T02:04:27.719Z,19.74
2022-08-22T02:05:28.108Z,19.74
2022-08-22T02:06:28.131Z,19.73
2022-08-22T02:07:31.784Z,19.7
2022-08-22T02:08:27.634Z,19.68
2022-08-22T02:09:27.838Z,19.64
2022-08-22T02:10:27.773Z,19.62
2022-08-22T02:11:28.003Z,19.6
2022-08-22T02:12:27.718Z,19.62
2022-08-22T02:13:27.718Z,19.61
2022-08-22T02:14:27.784Z,19.59
2022-08-22T02:15:27.857Z,19.56
2022-08-22T02:16:27.997Z,19.54
2022-08-22T02:17:30.747Z,19.51
2022-08-22T02:18:27.720Z,19.51
2022-08-22T02:19:27.731Z,19.48
2022-08-22T02:20:28.076Z,19.48
2022-08-22T02:21:28.009Z,19.49
2022-08-22T02:22:27.830Z,19.49
2022-08-22T02:23:27.725Z,19.46
2022-08-22T02:24:27.767Z,19.44
2022-08-22T02:25:27.786Z,19.42
2022-08-22T02:26:28.001Z,19.45
2022-08-22T02:27:31.375Z,19.64
2022-08-22T02:28:27.775Z,19.62
2022-08-22T02:29:27.837Z,19.58
2022-08-22T02:30:27.723Z,19.53
2022-08-22T02:31:28.066Z,19.38
2022-08-22T02:32:27.821Z,19.33
2022-08-22T02:33:30.743Z,19.31
2022-08-22T02:34:27.736Z,19.27
2022-08-22T02:35:28.076Z,19.2
2022-08-22T02:36:27.997Z,19.24
2022-08-22T02:37:27.827Z,19.3
2022-08-22T02:38:27.643Z,19.3
2022-08-22T02:39:27.750Z,19.31
2022-08-22T02:40:27.656Z,19.47
2022-08-22T02:41:28.016Z,19.45
2022-08-22T02:42:27.749Z,19.4
2022-08-22T02:43:27.749Z,19.36
2022-08-22T02:44:30.657Z,19.33
2022-08-22T02:45:27.843Z,19.32
2022-08-22T02:46:28.075Z,19.23
2022-08-22T02:47:27.726Z,19.19
2022-08-22T02:48:27.896Z,19.17
2022-08-22T02:49:27.821Z,19.21
2022-08-22T02:50:28.009Z,19.19
2022-08-22T02:51:28.077Z,19.15
2022-08-22T02:52:27.728Z,19.11
2022-08-22T02:53:27.784Z,19.09
2022-08-22T02:54:27.857Z,19.12
2022-08-22T02:55:30.710Z,19.05
2022-08-22T02:56:28.007Z,19.03
2022-08-22T02:57:27.822Z,19.03
2022-08-22T02:58:27.727Z,19.08
2022-08-22T02:59:27.771Z,19.11
2022-08-22T03:00:31.512Z,19.1
2022-08-22T03:01:28.080Z,19.11
2022-08-22T03:02:27.813Z,19.12
2022-08-22T03:03:27.636Z,19.08
2022-08-22T03:04:27.639Z,19.01
2022-08-22T03:05:28.066Z,19.01
2022-08-22T03:06:28.000Z,19.05
2022-08-22T03:07:27.744Z,19.08
2022-08-22T03:08:29.115Z,19.26
2022-08-22T03:09:27.758Z,19.26
2022-08-22T03:10:27.734Z,19.23
2022-08-22T03:11:30.996Z,19.23
2022-08-22T03:12:27.828Z,19.27
2022-08-22T03:13:27.761Z,19.17
2022-08-22T03:14:27.851Z,19.09
2022-08-22T03:15:27.804Z,19.01
2022-08-22T03:16:28.071Z,18.93
2022-08-22T03:17:27.635Z,18.87
2022-08-22T03:18:27.735Z,18.84
2022-08-22T03:19:27.768Z,18.83
2022-08-22T03:20:28.008Z,18.82
2022-08-22T03:21:28.007Z,18.83
2022-08-22T03:22:30.772Z,18.84
2022-08-22T03:23:27.827Z,18.84
2022-08-22T03:24:27.822Z,18.84
2022-08-22T03:25:27.674Z,18.84
2022-08-22T03:26:28.072Z,18.87
2022-08-22T03:27:32.643Z,18.88
2022-08-22T03:28:30.751Z,18.88
2022-08-22T03:29:27.801Z,18.87
2022-08-22T03:30:27.747Z,18.85
2022-08-22T03:31:28.076Z,18.84
2022-08-22T03:32:27.666Z,18.85
2022-08-22T03:33:27.639Z,18.83
2022-08-22T03:34:27.650Z,18.83
2022-08-22T03:35:28.141Z,18.84
2022-08-22T03:36:28.011Z,18.8
2022-08-22T03:37:27.758Z,18.75
2022-08-22T03:38:27.876Z,18.71
2022-08-22T03:39:27.635Z,18.69
2022-08-22T03:40:31.981Z,18.64
2022-08-22T03:41:28.092Z,18.62
2022-08-22T03:42:27.770Z,18.6
2022-08-22T03:43:27.765Z,18.59
2022-08-22T03:44:30.756Z,18.56
2022-08-22T03:45:27.831Z,18.57
2022-08-22T03:46:28.006Z,18.56
2022-08-22T03:47:28.852Z,18.54
2022-08-22T03:48:27.739Z,18.5
2022-08-22T03:49:27.829Z,18.46
2022-08-22T03:50:27.999Z,18.42
2022-08-22T03:51:27.762Z,18.4
2022-08-22T03:52:27.854Z,18.4
2022-08-22T03:53:27.750Z,18.59
2022-08-22T03:54:30.488Z,18.61
2022-08-22T03:55:30.674Z,18.59
2022-08-22T03:56:28.009Z,18.61
2022-08-22T03:57:27.827Z,18.6
2022-08-22T03:58:28.462Z,18.48
2022-08-22T03:59:27.748Z,18.44
2022-08-22T04:00:27.665Z,18.42
2022-08-22T04:01:28.003Z,18.42
2022-08-22T04:02:43.075Z,18.42
2022-08-22T04:03:27.775Z,18.4
2022-08-22T04:04:27.850Z,18.41
2022-08-22T04:05:28.009Z,18.4
2022-08-22T04:06:28.009Z,18.38
2022-08-22T04:07:28.170Z,18.39
2022-08-22T04:08:27.855Z,18.38
2022-08-22T04:09:27.828Z,18.38
2022-08-22T04:10:27.745Z,18.38
2022-08-22T04:11:33.724Z,18.49
2022-08-22T04:12:27.850Z,18.54
2022-08-22T04:13:27.851Z,18.5
2022-08-22T04:14:27.746Z,18.48
2022-08-22T04:15:27.666Z,18.46
2022-08-22T04:16:28.068Z,18.44
2022-08-22T04:17:27.766Z,18.43
2022-08-22T04:18:27.735Z,18.42
2022-08-22T04:19:27.758Z,18.31
2022-08-22T04:20:27.999Z,18.29
2022-08-22T04:21:28.004Z,18.29
2022-08-22T04:22:30.653Z,18.29
2022-08-22T04:23:27.767Z,18.29
2022-08-22T04:24:27.764Z,18.3
2022-08-22T04:25:27.748Z,18.31
2022-08-22T04:26:28.078Z,18.32
2022-08-22T04:27:27.798Z,18.43
2022-08-22T04:28:27.748Z,18.46
2022-08-22T04:29:27.740Z,18.45
2022-08-22T04:30:27.716Z,18.45
2022-08-22T04:31:28.077Z,18.43
2022-08-22T04:32:27.847Z,18.38
2022-08-22T04:33:30.617Z,18.27
2022-08-22T04:34:27.810Z,18.35
2022-08-22T04:35:28.070Z,18.4
2022-08-22T04:36:27.804Z,18.3
2022-08-22T04:37:27.708Z,18.28
2022-08-22T04:38:27.778Z,18.26
2022-08-22T04:39:27.634Z,18.25
2022-08-22T04:40:27.731Z,18.25
2022-08-22T04:41:28.012Z,18.25
2022-08-22T04:42:33.263Z,18.25
2022-08-22T04:43:27.640Z,18.26
2022-08-22T04:44:30.679Z,18.29
2022-08-22T04:45:27.719Z,18.31
2022-08-22T04:46:36.827Z,18.32
2022-08-22T04:47:27.712Z,18.31
2022-08-22T04:48:27.775Z,18.32
2022-08-22T04:49:27.829Z,18.32
2022-08-22T04:50:27.998Z,18.33
2022-08-22T04:51:28.078Z,18.34
2022-08-22T04:52:29.434Z,18.36
2022-08-22T04:53:27.771Z,18.38
2022-08-22T04:54:27.847Z,18.47
2022-08-22T04:55:30.746Z,18.47
2022-08-22T04:56:28.007Z,18.49
2022-08-22T04:57:27.799Z,18.51
2022-08-22T04:58:27.757Z,18.54
2022-08-22T04:59:27.818Z,18.52
2022-08-22T05:00:27.774Z,18.48
2022-08-22T05:01:28.044Z,18.45
2022-08-22T05:02:27.696Z,18.43
2022-08-22T05:03:27.790Z,18.45
2022-08-22T05:04:27.726Z,18.45
2022-08-22T05:05:28.073Z,18.46
2022-08-22T05:06:33.689Z,18.46
2022-08-22T05:07:27.827Z,18.45
2022-08-22T05:08:27.736Z,18.47
2022-08-22T05:09:27.791Z,18.47
2022-08-22T05:10:27.783Z,18.5
2022-08-22T05:11:28.014Z,18.52
2022-08-22T05:12:29.133Z,18.55
2022-08-22T05:13:27.784Z,18.57
2022-08-22T05:14:27.823Z,18.57
2022-08-22T05:15:27.838Z,18.59
2022-08-22T05:16:27.825Z,18.59
2022-08-22T05:17:30.665Z,18.59
2022-08-22T05:18:29.921Z,18.6
2022-08-22T05:19:31.938Z,18.62
2022-08-22T05:20:28.002Z,18.64
2022-08-22T05:21:27.996Z,18.68
2022-08-22T05:22:27.821Z,18.68
2022-08-22T05:23:27.665Z,18.7
2022-08-22T05:24:28.219Z,18.72
2022-08-22T05:25:27.856Z,18.72
2022-08-22T05:26:27.999Z,18.77
2022-08-22T05:27:27.826Z,18.77
2022-08-22T05:28:30.672Z,18.76
2022-08-22T05:29:27.841Z,18.78
2022-08-22T05:30:27.728Z,18.81
2022-08-22T05:31:27.668Z,18.91
2022-08-22T05:32:27.757Z,18.8
2022-08-22T05:33:27.807Z,18.83
2022-08-22T05:34:27.785Z,18.82
2022-08-22T05:35:28.071Z,18.83
2022-08-22T05:36:27.869Z,18.86
2022-08-22T05:37:27.828Z,18.88
2022-08-22T05:38:27.795Z,18.87
2022-08-22T05:39:30.671Z,18.88
2022-08-22T05:40:28.003Z,18.93
2022-08-22T05:41:27.749Z,19
2022-08-22T05:42:27.703Z,18.99
2022-08-22T05:43:27.740Z,19.04
2022-08-22T05:44:27.829Z,19.08
2022-08-22T05:45:28.000Z,19.1
2022-08-22T05:46:27.750Z,19.11
2022-08-22T05:47:27.720Z,19.13
2022-08-22T05:48:27.743Z,19.14
2022-08-22T05:49:27.707Z,19.19
2022-08-22T05:50:33.702Z,19.25
2022-08-22T05:51:27.800Z,19.31
2022-08-22T05:52:28.151Z,19.36
2022-08-22T05:53:27.716Z,19.56
2022-08-22T05:54:33.829Z,19.6
2022-08-22T05:55:28.009Z,19.68
2022-08-22T05:56:27.773Z,19.78
2022-08-22T05:57:27.757Z,20.17
2022-08-22T05:58:27.816Z,21.34
2022-08-22T05:59:27.763Z,22.65
2022-08-22T06:00:28.011Z,23.63
2022-08-22T06:01:30.704Z,24.77
2022-08-22T06:02:27.840Z,25.58
2022-08-22T06:03:27.661Z,25.81
2022-08-22T06:04:27.733Z,26.32
2022-08-22T06:05:28.075Z,26.74
2022-08-22T06:06:27.715Z,26.61
2022-08-22T06:07:27.772Z,26.64
2022-08-22T06:08:27.759Z,27.11
2022-08-22T06:09:35.578Z,27.5
2022-08-22T06:10:28.079Z,27.96
2022-08-22T06:11:32.714Z,28.36
2022-08-22T06:12:30.796Z,28.81
2022-08-22T06:13:27.821Z,29.06
2022-08-22T06:14:27.763Z,29.21
2022-08-22T06:15:29.028Z,29.17
2022-08-22T06:16:27.788Z,29.39
2022-08-22T06:17:27.727Z,29.7
2022-08-22T06:18:27.743Z,30.1
2022-08-22T06:19:27.733Z,30.6
2022-08-22T06:20:28.017Z,30.42
2022-08-22T06:21:27.792Z,30.35
2022-08-22T06:22:27.775Z,30.62
2022-08-22T06:23:30.703Z,30.72
2022-08-22T06:24:27.789Z,30.76
2022-08-22T06:25:28.168Z,31.21
2022-08-22T06:26:27.791Z,31.49
2022-08-22T06:27:31.117Z,31.63
2022-08-22T06:28:27.652Z,31.43
2022-08-22T06:29:30.754Z,30.98
2022-08-22T06:30:28.029Z,30.99
2022-08-22T06:31:27.839Z,30.66
2022-08-22T06:32:53.793Z,29.77
2022-08-22T06:33:27.847Z,30.15
2022-08-22T06:34:27.631Z,30.53
2022-08-22T06:35:28.001Z,30.05
2022-08-22T06:36:27.759Z,29.86
2022-08-22T06:37:27.730Z,29.92
2022-08-22T06:38:27.643Z,30.29
2022-08-22T06:39:27.745Z,30.53
2022-08-22T06:40:33.740Z,30.63
2022-08-22T06:41:27.785Z,30.52
2022-08-22T06:42:27.643Z,30.13
2022-08-22T06:43:27.828Z,29.39
2022-08-22T06:44:27.729Z,28.9
2022-08-22T06:45:28.076Z,28.46
2022-08-22T06:46:27.760Z,27.96
2022-08-22T06:47:27.738Z,27.57
2022-08-22T06:48:27.709Z,27.5
2022-08-22T06:49:27.748Z,27.56
2022-08-22T06:50:28.005Z,27.54
2022-08-22T06:51:30.760Z,27.33
2022-08-22T06:52:27.843Z,26.62
2022-08-22T06:53:27.802Z,25.79
2022-08-22T06:54:30.415Z,25.71
2022-08-22T06:55:28.020Z,25.76
2022-08-22T06:56:27.812Z,25.89
2022-08-22T06:57:27.731Z,25.85
2022-08-22T06:58:32.838Z,25.26
2022-08-22T06:59:27.743Z,24.64
2022-08-22T07:00:42.522Z,24.26
2022-08-22T07:01:27.884Z,24.08
2022-08-22T07:02:30.910Z,24.14
2022-08-22T07:03:27.843Z,24.56
2022-08-22T07:04:27.716Z,25.11
2022-08-22T07:05:28.095Z,25.66
2022-08-22T07:06:28.037Z,25.93
2022-08-22T07:07:27.746Z,26.16
2022-08-22T07:08:27.761Z,26.19
2022-08-22T07:09:27.824Z,26.19
2022-08-22T07:10:27.826Z,26.17
2022-08-22T07:11:28.071Z,26.2
2022-08-22T07:12:27.647Z,26.18
2022-08-22T07:13:27.650Z,26.34
2022-08-22T07:14:27.826Z,26.31
2022-08-22T07:15:27.740Z,26.27
2022-08-22T07:16:28.072Z,26.21
2022-08-22T07:17:27.657Z,26.28
2022-08-22T07:18:30.759Z,26.4
2022-08-22T07:19:27.709Z,26.44
2022-08-22T07:20:28.125Z,26.56
2022-08-22T07:21:27.803Z,26.66
2022-08-22T07:22:27.852Z,26.76
2022-08-22T07:23:27.782Z,26.84
2022-08-22T07:24:27.744Z,26.87
2022-08-22T07:25:27.734Z,26.93
2022-08-22T07:26:28.008Z,27.03
2022-08-22T07:27:27.839Z,26.84
2022-08-22T07:28:35.833Z,26.7
2022-08-22T07:29:30.726Z,26.63
2022-08-22T07:30:28.502Z,26.13
2022-08-22T07:31:28.132Z,25.87
2022-08-22T07:32:27.817Z,26.06
2022-08-22T07:33:27.972Z,26.41
2022-08-22T07:34:27.741Z,26.83
2022-08-22T07:35:28.017Z,26.72
2022-08-22T07:36:31.633Z,26.56
2022-08-22T07:37:27.814Z,26.94
2022-08-22T07:38:27.723Z,27.09
2022-08-22T07:39:27.727Z,27.08
2022-08-22T07:40:30.752Z,26.89
2022-08-22T07:41:28.001Z,26.67
2022-08-22T07:42:30.305Z,26.84
2022-08-22T07:43:27.749Z,26.75
2022-08-22T07:44:27.780Z,26.57
2022-08-22T07:45:27.798Z,26.41
2022-08-22T07:46:28.005Z,26.25
2022-08-22T07:47:27.728Z,26.18
2022-08-22T07:48:27.828Z,26.25
2022-08-22T07:49:27.753Z,26.4
2022-08-22T07:50:28.002Z,26.53
2022-08-22T07:51:33.690Z,26.55
2022-08-22T07:52:27.817Z,26.32
2022-08-22T07:53:27.675Z,26.28
2022-08-22T07:54:27.778Z,26.28
2022-08-22T07:55:27.750Z,26.35
2022-08-22T07:56:28.082Z,26.52
2022-08-22T07:57:27.792Z,26.33
2022-08-22T07:58:27.741Z,25.83
2022-08-22T07:59:27.854Z,25.6
2022-08-22T08:00:27.714Z,25.47
2022-08-22T08:01:27.683Z,25.41
2022-08-22T08:02:27.803Z,25.48
2022-08-22T08:03:27.859Z,25.6
2022-08-22T08:04:27.855Z,25.77
2022-08-22T08:05:28.001Z,25.7
2022-08-22T08:06:28.006Z,25.51
2022-08-22T08:07:30.755Z,25.34
2022-08-22T08:08:27.809Z,25.17
2022-08-22T08:09:27.762Z,24.97
2022-08-22T08:10:27.843Z,24.78
2022-08-22T08:11:28.082Z,24.79
2022-08-22T08:12:27.719Z,24.83
2022-08-22T08:13:27.744Z,24.85
2022-08-22T08:14:27.740Z,24.64
2022-08-22T08:15:27.740Z,24.51
2022-08-22T08:16:28.000Z,24.43
2022-08-22T08:17:31.501Z,24.47
2022-08-22T08:18:30.734Z,24.37
2022-08-22T08:19:27.847Z,24.35
2022-08-22T08:20:28.010Z,24.48
2022-08-22T08:21:27.999Z,24.57
2022-08-22T08:22:27.822Z,24.47
2022-08-22T08:23:27.781Z,24.2
2022-08-22T08:24:27.755Z,23.95
2022-08-22T08:25:27.608Z,23.82
2022-08-22T08:26:28.088Z,23.76
2022-08-22T08:27:27.728Z,23.83
2022-08-22T08:28:27.753Z,24.04
2022-08-22T08:29:30.799Z,24.18
2022-08-22T08:30:27.839Z,24.24
2022-08-22T08:31:28.143Z,24.31
2022-08-22T08:32:27.641Z,24.3
2022-08-22T08:33:27.731Z,24.35
2022-08-22T08:34:27.752Z,24.52
2022-08-22T08:35:27.764Z,24.65
2022-08-22T08:36:28.076Z,24.74
2022-08-22T08:37:27.817Z,24.8
2022-08-22T08:38:27.748Z,24.74
2022-08-22T08:39:34.955Z,24.59
2022-08-22T08:40:30.696Z,24.59
2022-08-22T08:41:28.013Z,24.64
2022-08-22T08:42:27.852Z,24.62
2022-08-22T08:43:27.804Z,24.51
2022-08-22T08:44:27.826Z,24.46
2022-08-22T08:45:28.953Z,24.46
2022-08-22T08:46:28.056Z,24.58
2022-08-22T08:47:27.753Z,24.66
2022-08-22T08:48:27.826Z,24.77
2022-08-22T08:49:27.852Z,24.88
2022-08-22T08:50:28.074Z,24.97
2022-08-22T08:51:33.700Z,24.96
2022-08-22T08:52:27.724Z,24.96
2022-08-22T08:53:27.777Z,24.94
2022-08-22T08:54:27.831Z,24.93
2022-08-22T08:55:27.702Z,24.94
2022-08-22T08:56:28.073Z,24.98
2022-08-22T08:57:27.720Z,25.11
2022-08-22T08:58:27.823Z,25.19
2022-08-22T08:59:27.725Z,25.31
2022-08-22T09:00:30.297Z,25.35
2022-08-22T09:01:28.619Z,25.29
2022-08-22T09:02:34.973Z,25.36
2022-08-22T09:03:30.962Z,25.56
2022-08-22T09:04:27.710Z,25.72
2022-08-22T09:05:28.079Z,25.91
2022-08-22T09:06:28.017Z,26.05
2022-08-22T09:07:27.857Z,26.11
2022-08-22T09:08:27.747Z,26.06
2022-08-22T09:09:27.740Z,26.23
2022-08-22T09:10:29.323Z,26.11
2022-08-22T09:11:28.565Z,26.03
2022-08-22T09:12:27.731Z,26.05
2022-08-22T09:13:34.444Z,26.14
2022-08-22T09:14:27.719Z,26.18
2022-08-22T09:15:27.649Z,26.22
2022-08-22T09:16:27.721Z,26.24
2022-08-22T09:17:27.768Z,26.31
2022-08-22T09:18:27.676Z,26.41
2022-08-22T09:19:30.740Z,26.43
2022-08-22T09:20:27.833Z,26.46
2022-08-22T09:21:31.290Z,26.62
2022-08-22T09:22:27.773Z,26.74
2022-08-22T09:23:27.834Z,26.84
2022-08-22T09:24:27.710Z,26.99
2022-08-22T09:26:28.080Z,27.24
2022-08-22T09:28:14.941Z,27.46
2022-08-22T09:29:15.015Z,27.36
2022-08-22T09:30:14.904Z,27.27
2022-08-22T09:31:16.502Z,27.38
2022-08-22T09:32:14.989Z,27.46
2022-08-22T09:33:17.964Z,27.4
2022-08-22T09:34:16.496Z,27.39
2022-08-22T09:35:14.986Z,27.5
2022-08-22T09:36:15.328Z,27.61
2022-08-22T09:37:14.975Z,27.7
2022-08-22T09:38:14.907Z,27.78
2022-08-22T09:39:14.879Z,27.89
2022-08-22T09:40:16.187Z,27.14
2022-08-22T09:40:17.644Z,28
2022-08-22T09:41:15.252Z,28.11
2022-08-22T09:42:15.054Z,28.12
2022-08-22T09:43:21.201Z,28.17
2022-08-22T09:44:14.864Z,28.17
2022-08-22T09:45:14.875Z,28.26
2022-08-22T09:46:15.325Z,28.33
2022-08-22T09:47:15.046Z,28.28
2022-08-22T09:48:15.087Z,28.27
2022-08-22T09:49:18.014Z,28.28
2022-08-22T09:50:17.148Z,28.29
2022-08-22T09:51:32.123Z,28.34
2022-08-22T09:52:31.958Z,28.31
2022-08-22T09:53:14.969Z,28.27
2022-08-22T09:54:15.024Z,28.21
2022-08-22T09:55:16.288Z,28.39
2022-08-22T09:56:15.936Z,28.56
2022-08-22T09:57:15.012Z,28.64
2022-08-22T09:58:15.029Z,28.66
2022-08-22T09:59:15.050Z,28.65
2022-08-22T10:00:22.336Z,28.73
2022-08-22T10:01:15.332Z,28.74
2022-08-22T10:02:15.808Z,28.79
2022-08-22T10:03:15.009Z,28.97
2022-08-22T10:04:19.641Z,29.01
2022-08-22T10:05:39.513Z,28.74
2022-08-22T10:06:15.247Z,28.58
2022-08-22T10:07:14.997Z,28.49
2022-08-22T10:08:14.988Z,28.6
2022-08-22T10:09:14.902Z,28.9
2022-08-22T10:10:14.997Z,28.99
2022-08-22T10:11:21.268Z,28.98
2022-08-22T10:12:14.958Z,29
2022-08-22T10:13:14.987Z,29.11
2022-08-22T10:14:14.984Z,29.14
2022-08-22T10:15:15.021Z,29.24
2022-08-22T10:16:14.966Z,29.24
2022-08-22T10:17:14.912Z,29.21
2022-08-22T10:18:14.998Z,29.27
2022-08-22T10:19:15.031Z,29.4
2022-08-22T10:20:14.970Z,29.42
2022-08-22T10:21:15.325Z,29.42
2022-08-22T10:22:18.030Z,29.39
2022-08-22T10:23:15.100Z,29.35
2022-08-22T10:24:24.577Z,29.26
2022-08-22T10:25:14.999Z,29.09
2022-08-22T10:26:22.665Z,29.12
2022-08-22T10:27:14.920Z,29.15
2022-08-22T10:28:15.025Z,29.18
2022-08-22T10:29:14.992Z,29.31
2022-08-22T10:30:16.470Z,29.37
2022-08-22T10:31:15.327Z,29.36
2022-08-22T10:32:15.083Z,29.25
2022-08-22T10:33:18.007Z,29.26
2022-08-22T10:34:15.100Z,29.35
2022-08-22T10:35:15.267Z,29.4
2022-08-22T10:36:15.321Z,29.5
2022-08-22T10:37:15.093Z,29.7
2022-08-22T10:38:14.894Z,29.97
2022-08-22T10:39:15.029Z,30.22
2022-08-22T10:40:15.062Z,30.35
2022-08-22T10:41:15.332Z,30.47
2022-08-22T10:42:18.543Z,30.47
2022-08-22T10:43:15.012Z,30.23
2022-08-22T10:44:17.968Z,29.95
2022-08-22T10:45:15.087Z,29.76
2022-08-22T10:46:15.251Z,29.74
2022-08-22T10:47:14.972Z,29.93
2022-08-22T10:48:15.028Z,30.22
2022-08-22T10:49:17.932Z,30.43
2022-08-22T10:50:15.030Z,30.51
2022-08-22T10:51:15.322Z,30.62
2022-08-22T10:52:16.056Z,30.62
2022-08-22T10:53:15.031Z,30.42
2022-08-22T10:54:14.978Z,30.22
2022-08-22T10:55:18.004Z,30.03
2022-08-22T10:56:15.253Z,30.05
2022-08-22T10:57:14.937Z,29.95
2022-08-22T10:58:14.997Z,29.73
2022-08-22T10:59:15.066Z,29.63
2022-08-22T11:00:14.957Z,29.51
2022-08-22T11:01:37.461Z,29.24
2022-08-22T11:02:15.034Z,29.08
2022-08-22T11:03:18.698Z,28.97
2022-08-22T11:04:15.092Z,28.83
2022-08-22T11:05:15.103Z,28.67
2022-08-22T11:06:18.375Z,28.49
2022-08-22T11:07:15.094Z,28.27
2022-08-22T11:08:15.005Z,28.13
2022-08-22T11:09:14.973Z,28.14
2022-08-22T11:10:15.004Z,28.09
2022-08-22T11:11:15.361Z,28.03
2022-08-22T11:12:15.035Z,28.12
2022-08-22T11:13:14.870Z,28.3
2022-08-22T11:14:15.018Z,28.45
2022-08-22T11:15:15.042Z,28.56
2022-08-22T11:16:15.320Z,28.92
2022-08-22T11:17:30.312Z,29.25
2022-08-22T11:18:15.069Z,29.32
2022-08-22T11:19:15.871Z,29.31
2022-08-22T11:20:14.912Z,29.26
2022-08-22T11:21:15.324Z,29.48
2022-08-22T11:22:15.069Z,29.72
2022-08-22T11:23:14.979Z,29.76
2022-08-22T11:24:17.378Z,29.68
2022-08-22T11:25:14.878Z,29.61
2022-08-22T11:26:15.378Z,29.49
2022-08-22T11:27:17.613Z,29.5
2022-08-22T11:28:17.868Z,29.77
2022-08-22T11:29:14.900Z,29.78
2022-08-22T11:30:18.594Z,29.74
2022-08-22T11:31:15.380Z,29.9
2022-08-22T11:32:14.986Z,30.07
2022-08-22T11:33:14.995Z,30.35
2022-08-22T11:34:20.534Z,30.68
2022-08-22T11:35:15.051Z,30.98
2022-08-22T11:36:15.321Z,30.92
2022-08-22T11:37:15.084Z,30.7
2022-08-22T11:38:15.044Z,30.37
2022-08-22T11:39:18.695Z,29.89
2022-08-22T11:40:15.065Z,29.69
2022-08-22T11:41:14.878Z,29.8
2022-08-22T11:42:15.024Z,30.08
2022-08-22T11:43:18.033Z,30.27
2022-08-22T11:44:15.014Z,30.2
2022-08-22T11:45:18.030Z,30.19
2022-08-22T11:46:15.080Z,30.08
2022-08-22T11:47:15.005Z,29.96
2022-08-22T11:48:14.917Z,29.69
2022-08-22T11:49:15.028Z,29.51
2022-08-22T11:50:15.076Z,29.37
2022-08-22T11:51:15.258Z,29.41
2022-08-22T11:52:14.997Z,29.68
2022-08-22T11:53:15.069Z,29.79
2022-08-22T11:54:14.916Z,29.68
2022-08-22T11:55:15.017Z,29.6
2022-08-22T11:56:20.925Z,29.75
2022-08-22T11:57:15.006Z,30.04
2022-08-22T11:58:15.011Z,30.32
2022-08-22T11:59:15.057Z,30.66
2022-08-22T12:00:15.007Z,30.89
2022-08-22T12:01:17.177Z,31.02
2022-08-22T12:02:15.085Z,31.15
2022-08-22T12:03:15.029Z,31.4
2022-08-22T12:04:14.911Z,31.63
2022-08-22T12:05:20.043Z,31.73
2022-08-22T12:06:15.247Z,31.66
2022-08-22T12:07:15.020Z,31.45
2022-08-22T12:08:14.976Z,31.26
2022-08-22T12:09:14.970Z,31.02
2022-08-22T12:10:15.066Z,31.14
2022-08-22T12:11:15.254Z,31.32
2022-08-22T12:12:18.204Z,31.39
2022-08-22T12:13:15.055Z,31.43
2022-08-22T12:14:14.967Z,31.36
2022-08-22T12:15:15.399Z,31.27
2022-08-22T12:16:15.322Z,31.17
2022-08-22T12:17:44.039Z,31.21
2022-08-22T12:18:21.306Z,31.15
2022-08-22T12:19:15.012Z,31.14
2022-08-22T12:20:16.739Z,31.16
2022-08-22T12:21:15.323Z,31.37
2022-08-22T12:22:15.060Z,31.5
2022-08-22T12:23:18.096Z,31.75
2022-08-22T12:24:19.005Z,31.99
2022-08-22T12:25:15.088Z,32.15
2022-08-22T12:26:15.320Z,32.39
2022-08-22T12:27:14.897Z,32.63
2022-08-22T12:28:15.830Z,32.59
2022-08-22T12:29:16.638Z,32.34
2022-08-22T12:30:14.922Z,32
2022-08-22T12:31:15.041Z,31.85
2022-08-22T12:32:14.997Z,31.78
2022-08-22T12:33:18.333Z,31.73
2022-08-22T12:34:18.029Z,31.69
2022-08-22T12:35:15.066Z,31.69
2022-08-22T12:36:18.004Z,31.79
2022-08-22T12:37:14.881Z,31.73
2022-08-22T12:38:27.972Z,31.49
2022-08-22T12:39:14.985Z,31.5
2022-08-22T12:40:15.190Z,31.75
2022-08-22T12:41:28.094Z,31.66
2022-08-22T12:42:15.022Z,31.65
2022-08-22T12:43:18.715Z,31.64
2022-08-22T12:44:17.167Z,31.53
2022-08-22T12:45:15.015Z,31.16
2022-08-22T12:46:15.322Z,30.84
2022-08-22T12:47:14.981Z,30.69
2022-08-22T12:48:14.983Z,30.6
2022-08-22T12:49:15.013Z,30.77
2022-08-22T12:50:17.997Z,30.92
2022-08-22T12:51:17.281Z,31.1